sensor_id;sensor_type;location;lat;lon;timestamp;pressure;altitude;pressure_sealevel;temperature;humidity
57827;BME280;43656;57.746;11.780;2024-02-21T00:01:25;100751.34;;;5.22;100.00
57827;BME280;43656;57.746;11.780;2024-02-21T00:03:51;100748.88;;;5.21;100.00
57827;BME280;43656;57.746;11.780;2024-02-21T00:06:16;100751.53;;;5.21;100.00
57827;BME280;43656;57.746;11.780;2024-02-21T00:08:42;100751.53;;;5.21;100.00
57827;BME280;43656;57.746;11.780;2024-02-21T00:11:07;100669.63;;;4.72;100.00
57827;BME280;43656;57.746;11.780;2024-02-21T00:13:32;100741.50;;;5.23;100.00
57827;BME280;43656;57.746;11.780;2024-02-21T00:16:00;100738.19;;;5.21;100.00
57827;BME280;43656;57.746;11.780;2024-02-21T00:18:27;100733.53;;;5.14;100.00
57827;BME280;43656;57.746;11.780;2024-02-21T00:20:52;100728.16;;;5.23;100.00
57827;BME280;43656;57.746;11.780;2024-02-21T00:23:18;100732.03;;;5.20;100.00
57827;BME280;43656;57.746;11.780;2024-02-21T00:25:43;100726.00;;;5.18;100.00
57827;BME280;43656;57.746;11.780;2024-02-21T00:28:09;100714.84;;;5.14;100.00
57827;BME280;43656;57.746;11.780;2024-02-21T00:30:34;100598.81;;;4.45;100.00
57827;BME280;43656;57.746;11.780;2024-02-21T00:33:00;100713.84;;;5.15;100.00
57827;BME280;43656;57.746;11.780;2024-02-21T00:35:25;100707.84;;;5.13;100.00
57827;BME280;43656;57.746;11.780;2024-02-21T00:37:51;100705.34;;;5.12;100.00
57827;BME280;43656;57.746;11.780;2024-02-21T00:40:17;100697.00;;;5.07;100.00
57827;BME280;43656;57.746;11.780;2024-02-21T00:42:48;100666.34;;;4.94;100.00
57827;BME280;43656;57.746;11.780;2024-02-21T00:45:13;100674.66;;;5.08;100.00
57827;BME280;43656;57.746;11.780;2024-02-21T00:47:39;100656.84;;;5.00;100.00
57827;BME280;43656;57.746;11.780;2024-02-21T00:50:05;100673.00;;;5.07;100.00
57827;BME280;43656;57.746;11.780;2024-02-21T00:52:32;100663.19;;;5.07;100.00
57827;BME280;43656;57.746;11.780;2024-02-21T00:54:57;100663.84;;;5.01;100.00
57827;BME280;43656;57.746;11.780;2024-02-21T00:57:22;100662.81;;;5.02;100.00
57827;BME280;43656;57.746;11.780;2024-02-21T00:59:48;100663.66;;;5.03;100.00
57827;BME280;43656;57.746;11.780;2024-02-21T01:02:14;100653.16;;;5.01;100.00
57827;BME280;43656;57.746;11.780;2024-02-21T01:04:39;100648.16;;;4.98;100.00
57827;BME280;43656;57.746;11.780;2024-02-21T01:07:05;100657.50;;;5.02;100.00
57827;BME280;43656;57.746;11.780;2024-02-21T01:09:30;100652.16;;;5.02;100.00
57827;BME280;43656;57.746;11.780;2024-02-21T01:11:56;100639.84;;;5.01;100.00
57827;BME280;43656;57.746;11.780;2024-02-21T01:14:21;100632.47;;;5.03;100.00
57827;BME280;43656;57.746;11.780;2024-02-21T01:16:46;100632.34;;;5.05;100.00
57827;BME280;43656;57.746;11.780;2024-02-21T01:19:12;100630.50;;;5.05;100.00
57827;BME280;43656;57.746;11.780;2024-02-21T01:21:37;100618.81;;;5.06;100.00
57827;BME280;43656;57.746;11.780;2024-02-21T01:24:03;100578.81;;;4.90;100.00
57827;BME280;43656;57.746;11.780;2024-02-21T01:26:28;100599.31;;;5.06;100.00
57827;BME280;43656;57.746;11.780;2024-02-21T01:28:53;100602.16;;;5.04;100.00
57827;BME280;43656;57.746;11.780;2024-02-21T01:31:19;100591.31;;;5.06;100.00
57827;BME280;43656;57.746;11.780;2024-02-21T01:33:45;100576.84;;;4.92;100.00
57827;BME280;43656;57.746;11.780;2024-02-21T01:36:10;100587.16;;;5.03;100.00
57827;BME280;43656;57.746;11.780;2024-02-21T01:38:36;100581.00;;;5.03;100.00
57827;BME280;43656;57.746;11.780;2024-02-21T01:41:01;100573.16;;;5.01;100.00
57827;BME280;43656;57.746;11.780;2024-02-21T01:43:27;100564.50;;;4.99;100.00
57827;BME280;43656;57.746;11.780;2024-02-21T01:45:55;100551.16;;;4.99;100.00
57827;BME280;43656;57.746;11.780;2024-02-21T01:48:24;100551.84;;;5.01;100.00
57827;BME280;43656;57.746;11.780;2024-02-21T01:50:51;100550.19;;;5.00;100.00
57827;BME280;43656;57.746;11.780;2024-02-21T01:53:21;100534.53;;;4.97;100.00
57827;BME280;43656;57.746;11.780;2024-02-21T01:55:47;100540.16;;;5.02;100.00
57827;BME280;43656;57.746;11.780;2024-02-21T01:58:14;100531.16;;;5.03;100.00
57827;BME280;43656;57.746;11.780;2024-02-21T02:00:45;100476.53;;;4.83;100.00
57827;BME280;43656;57.746;11.780;2024-02-21T02:03:11;100501.66;;;5.05;100.00
57827;BME280;43656;57.746;11.780;2024-02-21T02:05:46;100484.66;;;5.06;100.00
57827;BME280;43656;57.746;11.780;2024-02-21T02:08:16;100491.47;;;5.08;100.00
57827;BME280;43656;57.746;11.780;2024-02-21T02:10:42;100485.81;;;5.11;100.00
57827;BME280;43656;57.746;11.780;2024-02-21T02:13:08;100425.59;;;4.78;100.00
57827;BME280;43656;57.746;11.780;2024-02-21T02:18:05;100445.34;;;5.00;100.00
57827;BME280;43656;57.746;11.780;2024-02-21T02:20:30;100453.47;;;5.06;100.00
57827;BME280;43656;57.746;11.780;2024-02-21T02:22:57;100453.66;;;5.05;100.00
57827;BME280;43656;57.746;11.780;2024-02-21T02:25:25;100440.84;;;5.00;100.00
57827;BME280;43656;57.746;11.780;2024-02-21T02:27:51;100448.34;;;4.97;100.00
57827;BME280;43656;57.746;11.780;2024-02-21T02:30:17;100433.38;;;4.87;100.00
57827;BME280;43656;57.746;11.780;2024-02-21T02:32:46;100430.03;;;4.93;100.00
57827;BME280;43656;57.746;11.780;2024-02-21T02:35:12;100431.84;;;4.93;100.00
57827;BME280;43656;57.746;11.780;2024-02-21T02:37:37;100421.53;;;4.90;100.00
57827;BME280;43656;57.746;11.780;2024-02-21T02:40:06;100424.19;;;4.90;100.00
57827;BME280;43656;57.746;11.780;2024-02-21T02:42:32;100397.25;;;4.77;100.00
57827;BME280;43656;57.746;11.780;2024-02-21T02:44:58;100411.06;;;4.88;100.00
57827;BME280;43656;57.746;11.780;2024-02-21T02:47:23;100394.56;;;4.85;100.00
57827;BME280;43656;57.746;11.780;2024-02-21T02:49:49;100391.72;;;4.86;100.00
57827;BME280;43656;57.746;11.780;2024-02-21T02:52:16;100391.72;;;4.86;100.00
57827;BME280;43656;57.746;11.780;2024-02-21T02:54:43;100393.56;;;4.86;100.00
57827;BME280;43656;57.746;11.780;2024-02-21T02:57:08;100390.06;;;4.85;100.00
57827;BME280;43656;57.746;11.780;2024-02-21T02:59:34;100379.25;;;4.87;100.00
57827;BME280;43656;57.746;11.780;2024-02-21T03:01:59;100376.41;;;4.88;100.00
57827;BME280;43656;57.746;11.780;2024-02-21T03:04:25;100372.72;;;4.89;100.00
57827;BME280;43656;57.746;11.780;2024-02-21T03:06:50;100365.53;;;4.90;100.00
57827;BME280;43656;57.746;11.780;2024-02-21T03:09:16;100355.94;;;4.81;100.00
57827;BME280;43656;57.746;11.780;2024-02-21T03:11:42;100369.91;;;4.91;100.00
57827;BME280;43656;57.746;11.780;2024-02-21T03:14:10;100340.63;;;4.75;100.00
57827;BME280;43656;57.746;11.780;2024-02-21T03:16:36;100361.22;;;4.89;100.00
57827;BME280;43656;57.746;11.780;2024-02-21T03:19:02;100361.56;;;4.86;100.00
57827;BME280;43656;57.746;11.780;2024-02-21T03:21:27;100356.91;;;4.88;100.00
57827;BME280;43656;57.746;11.780;2024-02-21T03:23:52;100356.91;;;4.88;100.00
57827;BME280;43656;57.746;11.780;2024-02-21T03:26:18;100349.94;;;4.87;100.00
57827;BME280;43656;57.746;11.780;2024-02-21T03:28:44;100343.72;;;4.86;100.00
57827;BME280;43656;57.746;11.780;2024-02-21T03:31:11;100334.91;;;4.86;100.00
57827;BME280;43656;57.746;11.780;2024-02-21T03:33:43;100341.25;;;4.85;100.00
57827;BME280;43656;57.746;11.780;2024-02-21T03:36:15;100328.63;;;4.79;100.00
57827;BME280;43656;57.746;11.780;2024-02-21T03:38:41;100328.94;;;4.84;100.00
57827;BME280;43656;57.746;11.780;2024-02-21T03:41:06;100327.25;;;4.83;100.00
57827;BME280;43656;57.746;11.780;2024-02-21T03:43:32;100318.78;;;4.79;100.00
57827;BME280;43656;57.746;11.780;2024-02-21T03:45:58;100301.81;;;4.72;100.00
57827;BME280;43656;57.746;11.780;2024-02-21T03:48:24;100298.81;;;4.75;100.00
57827;BME280;43656;57.746;11.780;2024-02-21T03:50:49;100298.47;;;4.78;100.00
57827;BME280;43656;57.746;11.780;2024-02-21T03:53:15;100293.97;;;4.79;100.00
57827;BME280;43656;57.746;11.780;2024-02-21T03:55:40;100292.31;;;4.78;100.00
57827;BME280;43656;57.746;11.780;2024-02-21T03:58:06;100289.81;;;4.76;100.00
57827;BME280;43656;57.746;11.780;2024-02-21T04:00:31;100283.84;;;4.74;100.00
57827;BME280;43656;57.746;11.780;2024-02-21T04:02:56;100276.81;;;4.73;100.00
57827;BME280;43656;57.746;11.780;2024-02-21T04:05:22;100274.34;;;4.71;100.00
57827;BME280;43656;57.746;11.780;2024-02-21T04:07:47;100271.69;;;4.71;100.00
57827;BME280;43656;57.746;11.780;2024-02-21T04:10:13;100269.19;;;4.70;100.00
57827;BME280;43656;57.746;11.780;2024-02-21T04:12:38;100268.34;;;4.69;100.00
57827;BME280;43656;57.746;11.780;2024-02-21T04:15:22;100260.34;;;4.69;100.00
57827;BME280;43656;57.746;11.780;2024-02-21T04:18:07;100261.38;;;4.68;100.00
57827;BME280;43656;57.746;11.780;2024-02-21T04:20:33;100260.34;;;4.69;100.00
57827;BME280;43656;57.746;11.780;2024-02-21T04:22:59;100254.03;;;4.70;100.00
57827;BME280;43656;57.746;11.780;2024-02-21T04:25:24;100248.72;;;4.70;100.00
57827;BME280;43656;57.746;11.780;2024-02-21T04:27:50;100245.03;;;4.71;100.00
57827;BME280;43656;57.746;11.780;2024-02-21T04:30:15;100242.66;;;4.77;100.00
57827;BME280;43656;57.746;11.780;2024-02-21T04:32:41;100236.16;;;4.79;100.00
57827;BME280;43656;57.746;11.780;2024-02-21T04:35:07;100218.06;;;4.66;100.00
57827;BME280;43656;57.746;11.780;2024-02-21T04:37:33;100240.63;;;4.87;100.00
57827;BME280;43656;57.746;11.780;2024-02-21T04:39:58;100234.09;;;4.89;100.00
57827;BME280;43656;57.746;11.780;2024-02-21T04:42:24;100229.91;;;4.95;100.00
57827;BME280;43656;57.746;11.780;2024-02-21T04:44:49;100231.38;;;4.98;100.00
57827;BME280;43656;57.746;11.780;2024-02-21T04:47:14;100206.25;;;4.92;100.00
57827;BME280;43656;57.746;11.780;2024-02-21T04:49:40;100227.16;;;5.03;100.00
57827;BME280;43656;57.746;11.780;2024-02-21T04:52:05;100200.91;;;4.92;100.00
57827;BME280;43656;57.746;11.780;2024-02-21T04:54:31;100225.63;;;5.09;100.00
57827;BME280;43656;57.746;11.780;2024-02-21T04:56:56;100223.63;;;5.11;100.00
57827;BME280;43656;57.746;11.780;2024-02-21T04:59:21;100204.84;;;5.04;100.00
57827;BME280;43656;57.746;11.780;2024-02-21T05:01:47;100203.16;;;5.03;100.00
57827;BME280;43656;57.746;11.780;2024-02-21T05:04:12;100219.78;;;5.13;100.00
57827;BME280;43656;57.746;11.780;2024-02-21T05:06:39;100205.25;;;5.16;100.00
57827;BME280;43656;57.746;11.780;2024-02-21T05:09:05;100206.72;;;5.18;100.00
57827;BME280;43656;57.746;11.780;2024-02-21T05:11:31;100215.66;;;5.26;100.00
57827;BME280;43656;57.746;11.780;2024-02-21T05:13:56;100215.16;;;5.30;100.00
57827;BME280;43656;57.746;11.780;2024-02-21T05:16:22;100215.63;;;5.34;100.00
57827;BME280;43656;57.746;11.780;2024-02-21T05:18:47;100207.50;;;5.27;100.00
57827;BME280;43656;57.746;11.780;2024-02-21T05:21:13;100215.44;;;5.35;100.00
57827;BME280;43656;57.746;11.780;2024-02-21T05:23:38;100210.28;;;5.34;100.00
57827;BME280;43656;57.746;11.780;2024-02-21T05:26:05;100212.41;;;5.38;100.00
57827;BME280;43656;57.746;11.780;2024-02-21T05:28:31;100210.56;;;5.39;100.00
57827;BME280;43656;57.746;11.780;2024-02-21T05:30:56;100210.28;;;5.34;100.00
57827;BME280;43656;57.746;11.780;2024-02-21T05:33:21;100217.72;;;5.38;100.00
57827;BME280;43656;57.746;11.780;2024-02-21T05:35:48;100210.81;;;5.29;100.00
57827;BME280;43656;57.746;11.780;2024-02-21T05:38:14;100219.78;;;5.36;100.00
57827;BME280;43656;57.746;11.780;2024-02-21T05:40:40;100223.44;;;5.35;100.00
57827;BME280;43656;57.746;11.780;2024-02-21T05:43:07;100204.16;;;5.25;100.00
57827;BME280;43656;57.746;11.780;2024-02-21T05:45:32;100214.97;;;5.32;100.00
57827;BME280;43656;57.746;11.780;2024-02-21T05:47:58;100206.22;;;5.23;100.00
57827;BME280;43656;57.746;11.780;2024-02-21T05:50:23;100218.16;;;5.27;100.00
57827;BME280;43656;57.746;11.780;2024-02-21T05:52:53;100226.34;;;5.26;100.00
57827;BME280;43656;57.746;11.780;2024-02-21T05:55:19;100210.88;;;5.21;100.00
57827;BME280;43656;57.746;11.780;2024-02-21T05:57:44;100215.19;;;5.22;100.00
57827;BME280;43656;57.746;11.780;2024-02-21T06:00:10;100208.38;;;5.19;100.00
57827;BME280;43656;57.746;11.780;2024-02-21T06:02:35;100216.38;;;5.19;100.00
57827;BME280;43656;57.746;11.780;2024-02-21T06:05:01;100193.16;;;5.05;100.00
57827;BME280;43656;57.746;11.780;2024-02-21T06:07:26;100210.56;;;5.16;100.00
57827;BME280;43656;57.746;11.780;2024-02-21T06:09:52;100219.59;;;5.15;100.00
57827;BME280;43656;57.746;11.780;2024-02-21T06:12:17;100214.59;;;5.12;100.00
57827;BME280;43656;57.746;11.780;2024-02-21T06:14:42;100190.72;;;4.95;100.00
57827;BME280;43656;57.746;11.780;2024-02-21T06:17:08;100173.31;;;4.85;100.00
57827;BME280;43656;57.746;11.780;2024-02-21T06:19:33;100182.97;;;4.86;100.00
57827;BME280;43656;57.746;11.780;2024-02-21T06:22:00;100217.81;;;5.07;100.00
57827;BME280;43656;57.746;11.780;2024-02-21T06:24:25;100217.16;;;5.05;100.00
57827;BME280;43656;57.746;11.780;2024-02-21T06:26:51;100205.34;;;5.00;100.00
57827;BME280;43656;57.746;11.780;2024-02-21T06:29:16;100216.22;;;4.98;100.00
57827;BME280;43656;57.746;11.780;2024-02-21T06:31:42;100208.38;;;4.97;100.00
57827;BME280;43656;57.746;11.780;2024-02-21T06:34:07;100214.91;;;4.94;100.00
57827;BME280;43656;57.746;11.780;2024-02-21T06:36:33;100216.56;;;4.95;100.00
57827;BME280;43656;57.746;11.780;2024-02-21T06:38:59;100212.59;;;4.91;100.00
57827;BME280;43656;57.746;11.780;2024-02-21T06:41:24;100211.44;;;4.93;100.00
57827;BME280;43656;57.746;11.780;2024-02-21T06:43:50;100209.59;;;4.94;100.00
57827;BME280;43656;57.746;11.780;2024-02-21T06:46:27;100211.91;;;4.97;100.00
57827;BME280;43656;57.746;11.780;2024-02-21T06:48:58;100201.63;;;4.86;100.00
57827;BME280;43656;57.746;11.780;2024-02-21T06:51:25;100203.31;;;4.87;100.00
57827;BME280;43656;57.746;11.780;2024-02-21T06:53:50;100213.91;;;4.95;100.00
57827;BME280;43656;57.746;11.780;2024-02-21T06:56:16;100214.91;;;4.94;100.00
57827;BME280;43656;57.746;11.780;2024-02-21T06:58:41;100210.22;;;4.96;100.00
57827;BME280;43656;57.746;11.780;2024-02-21T07:01:08;100204.88;;;4.96;100.00
57827;BME280;43656;57.746;11.780;2024-02-21T07:03:34;100213.34;;;5.00;100.00
57827;BME280;43656;57.746;11.780;2024-02-21T07:06:00;100216.50;;;5.03;100.00
57827;BME280;43656;57.746;11.780;2024-02-21T07:08:26;100220.00;;;5.04;100.00
57827;BME280;43656;57.746;11.780;2024-02-21T07:10:51;100225.34;;;5.04;100.00
57827;BME280;43656;57.746;11.780;2024-02-21T07:13:16;100217.34;;;5.04;100.00
57827;BME280;43656;57.746;11.780;2024-02-21T07:15:43;100225.97;;;5.06;100.00
57827;BME280;43656;57.746;11.780;2024-02-21T07:18:08;100225.81;;;5.07;100.00
57827;BME280;43656;57.746;11.780;2024-02-21T07:20:34;100222.13;;;5.08;100.00
57827;BME280;43656;57.746;11.780;2024-02-21T07:23:02;100231.28;;;5.14;100.00
57827;BME280;43656;57.746;11.780;2024-02-21T07:25:27;100231.09;;;5.15;100.00
57827;BME280;43656;57.746;11.780;2024-02-21T07:27:53;100236.06;;;5.18;100.00
57827;BME280;43656;57.746;11.780;2024-02-21T07:30:18;100238.72;;;5.18;100.00
57827;BME280;43656;57.746;11.780;2024-02-21T07:32:44;100229.09;;;5.17;100.00
57827;BME280;43656;57.746;11.780;2024-02-21T07:35:09;100234.22;;;5.19;100.00
57827;BME280;43656;57.746;11.780;2024-02-21T07:37:37;100241.41;;;5.18;100.00
57827;BME280;43656;57.746;11.780;2024-02-21T07:40:06;100230.25;;;5.15;100.00
57827;BME280;43656;57.746;11.780;2024-02-21T07:42:32;100243.41;;;5.16;100.00
57827;BME280;43656;57.746;11.780;2024-02-21T07:44:58;100247.91;;;5.16;100.00
57827;BME280;43656;57.746;11.780;2024-02-21T07:47:23;100242.78;;;5.14;100.00
57827;BME280;43656;57.746;11.780;2024-02-21T07:49:49;100247.09;;;5.15;100.00
57827;BME280;43656;57.746;11.780;2024-02-21T07:52:15;100242.56;;;5.16;100.00
57827;BME280;43656;57.746;11.780;2024-02-21T07:54:41;100243.41;;;5.16;100.00
57827;BME280;43656;57.746;11.780;2024-02-21T07:57:07;100253.44;;;5.14;100.00
57827;BME280;43656;57.746;11.780;2024-02-21T07:59:32;100234.19;;;5.04;100.00
57827;BME280;43656;57.746;11.780;2024-02-21T08:01:58;100251.47;;;5.08;100.00
57827;BME280;43656;57.746;11.780;2024-02-21T08:04:24;100261.44;;;5.14;100.00
57827;BME280;43656;57.746;11.780;2024-02-21T08:06:54;100269.00;;;5.03;100.00
57827;BME280;43656;57.746;11.780;2024-02-21T08:09:21;100275.00;;;5.05;100.00
57827;BME280;43656;57.746;11.780;2024-02-21T08:11:47;100279.66;;;5.03;100.00
57827;BME280;43656;57.746;11.780;2024-02-21T08:14:13;100287.38;;;4.98;100.00
57827;BME280;43656;57.746;11.780;2024-02-21T08:16:41;100288.75;;;4.93;100.00
57827;BME280;43656;57.746;11.780;2024-02-21T08:19:06;100291.56;;;4.92;100.00
57827;BME280;43656;57.746;11.780;2024-02-21T08:21:32;100296.22;;;4.90;100.00
57827;BME280;43656;57.746;11.780;2024-02-21T08:23:57;100295.59;;;4.88;100.00
57827;BME280;43656;57.746;11.780;2024-02-21T08:26:22;100305.94;;;4.83;100.00
57827;BME280;43656;57.746;11.780;2024-02-21T08:28:48;100285.69;;;4.65;100.00
57827;BME280;43656;57.746;11.780;2024-02-21T08:31:20;100306.28;;;4.80;100.00
57827;BME280;43656;57.746;11.780;2024-02-21T08:33:45;100319.44;;;4.81;100.00
57827;BME280;43656;57.746;11.780;2024-02-21T08:36:20;100319.44;;;4.81;100.00
57827;BME280;43656;57.746;11.780;2024-02-21T08:38:46;100328.81;;;4.77;100.00
57827;BME280;43656;57.746;11.780;2024-02-21T08:41:11;100333.94;;;4.79;100.00
57827;BME280;43656;57.746;11.780;2024-02-21T08:43:37;100343.44;;;4.73;100.00
57827;BME280;43656;57.746;11.780;2024-02-21T08:46:04;100350.66;;;4.64;100.00
57827;BME280;43656;57.746;11.780;2024-02-21T08:48:29;100341.13;;;4.70;100.00
57827;BME280;43656;57.746;11.780;2024-02-21T08:50:54;100346.59;;;4.77;100.00
57827;BME280;43656;57.746;11.780;2024-02-21T08:53:20;100342.13;;;4.77;100.00
57827;BME280;43656;57.746;11.780;2024-02-21T08:55:45;100345.91;;;4.83;100.00
57827;BME280;43656;57.746;11.780;2024-02-21T08:58:11;100354.09;;;4.81;100.00
57827;BME280;43656;57.746;11.780;2024-02-21T09:00:37;100367.44;;;4.81;100.00
57827;BME280;43656;57.746;11.780;2024-02-21T09:03:02;100376.28;;;4.74;100.00
57827;BME280;43656;57.746;11.780;2024-02-21T09:05:28;100373.63;;;4.65;100.00
57827;BME280;43656;57.746;11.780;2024-02-21T09:07:53;100380.97;;;4.63;100.00
57827;BME280;43656;57.746;11.780;2024-02-21T09:10:19;100394.47;;;4.62;100.00
57827;BME280;43656;57.746;11.780;2024-02-21T09:12:45;100387.00;;;4.57;100.00
57827;BME280;43656;57.746;11.780;2024-02-21T09:15:11;100365.69;;;4.49;100.00
57827;BME280;43656;57.746;11.780;2024-02-21T09:17:36;100363.22;;;4.47;100.00
57827;BME280;43656;57.746;11.780;2024-02-21T09:20:02;100363.41;;;4.38;100.00
57827;BME280;43656;57.746;11.780;2024-02-21T09:22:29;100324.31;;;4.06;100.00
57827;BME280;43656;57.746;11.780;2024-02-21T09:24:54;100355.44;;;4.21;100.00
57827;BME280;43656;57.746;11.780;2024-02-21T09:27:20;100372.72;;;4.26;100.00
57827;BME280;43656;57.746;11.780;2024-02-21T09:29:46;100372.22;;;4.22;100.00
57827;BME280;43656;57.746;11.780;2024-02-21T09:32:11;100372.91;;;4.16;100.00
57827;BME280;43656;57.746;11.780;2024-02-21T09:34:37;100370.41;;;4.14;100.00
57827;BME280;43656;57.746;11.780;2024-02-21T09:37:03;100359.25;;;4.19;100.00
57827;BME280;43656;57.746;11.780;2024-02-21T09:39:28;100354.91;;;4.26;100.00
57827;BME280;43656;57.746;11.780;2024-02-21T09:41:59;100359.59;;;4.24;100.00
57827;BME280;43656;57.746;11.780;2024-02-21T09:44:36;100371.75;;;4.18;100.00
57827;BME280;43656;57.746;11.780;2024-02-21T09:47:33;100395.03;;;4.24;100.00
57827;BME280;43656;57.746;11.780;2024-02-21T09:50:04;100401.19;;;4.25;100.00
57827;BME280;43656;57.746;11.780;2024-02-21T09:52:30;100409.50;;;4.30;100.00
57827;BME280;43656;57.746;11.780;2024-02-21T09:54:58;100416.66;;;4.30;100.00
57827;BME280;43656;57.746;11.780;2024-02-21T09:57:24;100437.50;;;4.34;100.00
57827;BME280;43656;57.746;11.780;2024-02-21T09:59:51;100441.47;;;4.38;100.00
57827;BME280;43656;57.746;11.780;2024-02-21T10:02:17;100430.31;;;4.18;100.00
57827;BME280;43656;57.746;11.780;2024-02-21T10:04:43;100460.94;;;4.39;100.00
57827;BME280;43656;57.746;11.780;2024-02-21T10:07:08;100471.94;;;4.44;100.00
57827;BME280;43656;57.746;11.780;2024-02-21T10:09:34;100486.91;;;4.45;100.00
57827;BME280;43656;57.746;11.780;2024-02-21T10:12:10;100488.25;;;4.49;100.00
57827;BME280;43656;57.746;11.780;2024-02-21T10:14:35;100480.94;;;4.51;100.00
57827;BME280;43656;57.746;11.780;2024-02-21T10:17:01;100492.22;;;4.53;100.00
57827;BME280;43656;57.746;11.780;2024-02-21T10:19:28;100495.06;;;4.52;100.00
57827;BME280;43656;57.746;11.780;2024-02-21T10:22:04;100495.06;;;4.52;100.00
57827;BME280;43656;57.746;11.780;2024-02-21T10:24:30;100508.41;;;4.52;100.00
57827;BME280;43656;57.746;11.780;2024-02-21T10:27:02;100511.38;;;4.57;100.00
57827;BME280;43656;57.746;11.780;2024-02-21T10:29:31;100516.22;;;4.53;100.00
57827;BME280;43656;57.746;11.780;2024-02-21T10:32:13;100536.06;;;4.51;100.00
57827;BME280;43656;57.746;11.780;2024-02-21T10:34:39;100543.69;;;4.45;100.00
57827;BME280;43656;57.746;11.780;2024-02-21T10:37:14;100542.69;;;4.38;100.00
57827;BME280;43656;57.746;11.780;2024-02-21T10:39:40;100539.69;;;4.33;100.00
57827;BME280;43656;57.746;11.780;2024-02-21T10:42:06;100537.66;;;4.27;100.00
57827;BME280;43656;57.746;11.780;2024-02-21T10:44:37;100545.84;;;4.26;100.00
57827;BME280;43656;57.746;11.780;2024-02-21T10:47:11;100543.19;;;4.26;100.00
57827;BME280;43656;57.746;11.780;2024-02-21T10:49:44;100544.19;;;4.24;100.00
57827;BME280;43656;57.746;11.780;2024-02-21T10:52:33;100550.50;;;4.23;100.00
57827;BME280;43656;57.746;11.780;2024-02-21T10:55:26;100560.16;;;4.24;100.00
57827;BME280;43656;57.746;11.780;2024-02-21T10:57:53;100544.19;;;4.24;100.00
57827;BME280;43656;57.746;11.780;2024-02-21T11:00:19;100543.00;;;4.27;100.00
57827;BME280;43656;57.746;11.780;2024-02-21T11:02:47;100541.84;;;4.21;100.00
57827;BME280;43656;57.746;11.780;2024-02-21T11:05:15;100545.16;;;4.23;100.00
57827;BME280;43656;57.746;11.780;2024-02-21T11:07:41;100541.03;;;4.21;100.00
57827;BME280;43656;57.746;11.780;2024-02-21T11:10:20;100532.69;;;4.24;100.00
57827;BME280;43656;57.746;11.780;2024-02-21T11:12:47;100529.50;;;4.20;100.00
57827;BME280;43656;57.746;11.780;2024-02-21T11:15:13;100525.38;;;4.18;100.00
57827;BME280;43656;57.746;11.780;2024-02-21T11:17:38;100522.84;;;4.08;100.00
57827;BME280;43656;57.746;11.780;2024-02-21T11:20:13;100505.69;;;3.94;100.00
57827;BME280;43656;57.746;11.780;2024-02-21T11:22:42;100522.84;;;4.08;100.00
57827;BME280;43656;57.746;11.780;2024-02-21T11:25:09;100532.34;;;4.11;100.00
57827;BME280;43656;57.746;11.780;2024-02-21T11:27:37;100523.34;;;4.12;100.00
57827;BME280;43656;57.746;11.780;2024-02-21T11:30:04;100524.38;;;4.11;100.00
57827;BME280;43656;57.746;11.780;2024-02-21T11:32:30;100528.19;;;4.16;100.00
57827;BME280;43656;57.746;11.780;2024-02-21T11:34:57;100501.41;;;4.18;100.00
57827;BME280;43656;57.746;11.780;2024-02-21T11:37:28;100494.75;;;4.22;100.00
57827;BME280;43656;57.746;11.780;2024-02-21T11:39:58;100455.59;;;4.06;100.00
57827;BME280;43656;57.746;11.780;2024-02-21T11:42:26;100475.41;;;4.20;100.00
57827;BME280;43656;57.746;11.780;2024-02-21T11:44:53;100474.28;;;4.31;100.00
57827;BME280;43656;57.746;11.780;2024-02-21T11:47:18;100447.63;;;4.22;100.00
57827;BME280;43656;57.746;11.780;2024-02-21T11:49:48;100454.63;;;4.32;100.00
57827;BME280;43656;57.746;11.780;2024-02-21T11:52:15;100443.63;;;4.35;100.00
57827;BME280;43656;57.746;11.780;2024-02-21T11:54:42;100445.13;;;4.54;100.00
57827;BME280;43656;57.746;11.780;2024-02-21T11:57:08;100438.59;;;4.56;100.00
57827;BME280;43656;57.746;11.780;2024-02-21T11:59:34;100414.66;;;4.48;100.00
57827;BME280;43656;57.746;11.780;2024-02-21T12:02:00;100429.78;;;4.56;100.00
57827;BME280;43656;57.746;11.780;2024-02-21T12:04:26;100437.97;;;4.54;100.00
57827;BME280;43656;57.746;11.780;2024-02-21T12:06:52;100443.97;;;4.48;100.00
57827;BME280;43656;57.746;11.780;2024-02-21T12:09:18;100430.63;;;4.48;100.00
57827;BME280;43656;57.746;11.780;2024-02-21T12:11:44;100430.13;;;4.53;100.00
57827;BME280;43656;57.746;11.780;2024-02-21T12:14:16;100397.34;;;4.44;100.00
57827;BME280;43656;57.746;11.780;2024-02-21T12:16:42;100415.44;;;4.65;100.00
57827;BME280;43656;57.746;11.780;2024-02-21T12:19:10;100427.91;;;4.72;100.00
57827;BME280;43656;57.746;11.780;2024-02-21T12:21:36;100428.25;;;4.78;100.00
57827;BME280;43656;57.746;11.780;2024-02-21T12:24:17;100426.91;;;4.82;100.00
57827;BME280;43656;57.746;11.780;2024-02-21T12:26:43;100437.72;;;4.88;100.00
57827;BME280;43656;57.746;11.780;2024-02-21T12:29:08;100427.88;;;4.97;100.00
57827;BME280;43656;57.746;11.780;2024-02-21T12:31:40;100415.38;;;4.98;100.00
57827;BME280;43656;57.746;11.780;2024-02-21T12:34:06;100436.84;;;5.04;100.00
57827;BME280;43656;57.746;11.780;2024-02-21T12:36:32;100422.69;;;4.95;100.00
57827;BME280;43656;57.746;11.780;2024-02-21T12:38:58;100443.44;;;5.16;100.00
57827;BME280;43656;57.746;11.780;2024-02-21T12:41:24;100453.41;;;5.23;100.00